Leland, Iowa
Current Conditions -  °F | °C
As of 12:35 AM on Friday 31 Oct 2014 (Local Time) from KFXY Reporting Station
Overcast Overcast  
Wind Chill: 24°   Ceiling: 4200
Heat Index: 36°   Visibility: 10mi
Dew Point: 23°   Wind: 23mph
Humidity: 60%   Direction: 360°N
Pressure: 30.32"   Gusts: 37mph
Location:  43.34°N, 93.64°W
Report Text: KFXY 310535Z AUTO 36020G32KT 10SM OVC042 02/M05 A3032 RMK AO2
Loading
Personal Weather Stations






























Interactive Weather Map
Tropical Storm Tracking
New forecast layout! Learn more

10-Day Weather Forecast

Advertisements
Track Severe Weather on mobile